createdAt,value
2018-04-17T00:02:00.625Z,10.70
2018-04-17T00:04:28.868Z,10.60
2018-04-17T00:06:56.374Z,10.60
2018-04-17T00:09:24.675Z,10.60
2018-04-17T00:11:52.913Z,10.50
2018-04-17T00:14:21.166Z,10.50
2018-04-17T00:16:48.666Z,10.40
2018-04-17T00:19:16.914Z,10.30
2018-04-17T00:21:44.414Z,10.20
2018-04-17T00:24:11.897Z,10.20
2018-04-17T00:26:39.409Z,10.10
2018-04-17T00:29:07.650Z,9.90
2018-04-17T00:31:35.142Z,9.80
2018-04-17T00:34:03.385Z,9.70
2018-04-17T00:36:30.890Z,9.70
2018-04-17T00:38:59.139Z,9.60
2018-04-17T00:41:26.634Z,9.50
2018-04-17T00:43:54.112Z,9.60
2018-04-17T00:46:21.609Z,9.60
2018-04-17T00:48:49.090Z,9.60
2018-04-17T00:51:17.349Z,9.50
2018-04-17T00:53:53.667Z,9.50
2018-04-17T00:56:21.165Z,9.60
2018-04-17T00:58:48.646Z,9.50
2018-04-17T01:01:16.144Z,9.50
2018-04-17T01:03:43.620Z,9.50
2018-04-17T01:06:11.121Z,9.40
2018-04-17T01:08:38.611Z,9.40
2018-04-17T01:11:06.110Z,9.40
2018-04-17T01:13:33.584Z,9.40
2018-04-17T01:16:01.062Z,9.40
2018-04-17T01:18:29.330Z,9.30
2018-04-17T01:20:56.801Z,9.20
2018-04-17T01:23:25.061Z,9.10
2018-04-17T01:25:52.546Z,9.10
2018-04-17T01:28:20.802Z,9.00
2018-04-17T01:30:48.278Z,8.90
2018-04-17T01:33:15.774Z,8.90
2018-04-17T01:35:43.253Z,8.80
2018-04-17T01:38:10.745Z,8.80
2018-04-17T01:40:38.217Z,8.80
2018-04-17T01:43:06.482Z,8.60
2018-04-17T01:45:34.717Z,8.60
2018-04-17T01:48:02.213Z,8.50
2018-04-17T01:50:29.687Z,8.60
2018-04-17T01:52:57.941Z,8.60
2018-04-17T01:55:25.410Z,8.50
2018-04-17T01:57:52.901Z,8.60
2018-04-17T02:00:20.377Z,8.60
2018-04-17T02:02:47.877Z,8.60
2018-04-17T02:05:15.358Z,8.60
2018-04-17T02:07:43.629Z,8.50
2018-04-17T02:10:11.105Z,8.50
2018-04-17T02:12:39.356Z,8.50
2018-04-17T02:15:06.833Z,8.40
2018-04-17T02:17:35.093Z,8.40
2018-04-17T02:20:02.578Z,8.30
2018-04-17T02:22:30.838Z,8.30
2018-04-17T02:24:58.316Z,8.20
2018-04-17T02:27:26.569Z,8.10
2018-04-17T02:29:54.038Z,8.10
2018-04-17T02:41:01.025Z,8.00
2018-04-17T02:43:28.516Z,8.00
2018-04-17T02:45:55.992Z,8.00
2018-04-17T02:48:23.488Z,7.90
2018-04-17T02:50:50.973Z,7.90
2018-04-17T02:53:18.479Z,7.90
2018-04-17T02:55:46.716Z,7.80
2018-04-17T02:58:14.221Z,7.70
2018-04-17T03:00:42.549Z,7.70
2018-04-17T03:03:10.040Z,7.70
2018-04-17T03:05:37.517Z,7.70
2018-04-17T03:08:05.776Z,7.70
2018-04-17T03:10:34.023Z,7.70
2018-04-17T03:13:01.513Z,7.70
2018-04-17T03:15:29.753Z,7.70
2018-04-17T03:17:57.245Z,7.70
2018-04-17T03:20:24.721Z,7.70
2018-04-17T03:22:52.986Z,7.60
2018-04-17T03:25:21.235Z,7.60
2018-04-17T03:27:48.737Z,7.50
2018-04-17T03:30:16.982Z,7.50
2018-04-17T03:32:44.452Z,7.40
2018-04-17T03:35:11.942Z,7.40
2018-04-17T03:37:40.181Z,7.40
2018-04-17T03:40:07.678Z,7.40
2018-04-17T03:42:35.170Z,7.40
2018-04-17T03:45:02.665Z,7.30
2018-04-17T03:47:30.137Z,7.30
2018-04-17T03:49:58.394Z,7.30
2018-04-17T03:52:25.865Z,7.20
2018-04-17T03:54:54.178Z,7.20
2018-04-17T03:57:21.653Z,7.10
2018-04-17T03:59:49.187Z,7.10
2018-04-17T04:02:18.622Z,7.10
2018-04-17T04:04:46.117Z,7.00
2018-04-17T04:07:13.590Z,7.00
2018-04-17T04:09:41.857Z,6.90
2018-04-17T04:12:09.334Z,6.90
2018-04-17T04:14:37.597Z,6.90
2018-04-17T04:17:17.458Z,6.90
2018-04-17T04:19:57.390Z,6.80
2018-04-17T04:22:36.662Z,6.80
2018-04-17T04:25:13.835Z,6.80
2018-04-17T04:27:42.072Z,6.80
2018-04-17T04:30:09.565Z,6.80
2018-04-17T04:32:37.809Z,6.80
2018-04-17T04:35:05.305Z,6.70
2018-04-17T04:37:33.576Z,6.70
2018-04-17T04:40:01.849Z,6.70
2018-04-17T04:42:30.090Z,6.70
2018-04-17T04:44:57.589Z,6.60
2018-04-17T04:47:25.829Z,6.60
2018-04-17T04:49:53.321Z,6.60
2018-04-17T04:52:21.586Z,6.60
2018-04-17T04:54:49.077Z,6.60
2018-04-17T04:57:16.553Z,6.60
2018-04-17T04:59:44.041Z,6.60
2018-04-17T05:02:11.514Z,6.70
2018-04-17T05:04:39.013Z,6.70
2018-04-17T05:07:06.494Z,6.60
2018-04-17T05:09:34.637Z,6.60
2018-04-17T05:12:02.907Z,6.60
2018-04-17T05:14:31.155Z,6.60
2018-04-17T05:16:58.649Z,6.50
2018-04-17T05:19:26.897Z,6.60
2018-04-17T05:21:55.370Z,6.60
2018-04-17T05:24:22.846Z,6.70
2018-04-17T05:26:50.337Z,6.70
2018-04-17T05:29:17.818Z,6.70
2018-04-17T05:31:45.317Z,6.80
2018-04-17T05:34:12.843Z,6.90
2018-04-17T05:36:41.089Z,7.10
2018-04-17T05:39:09.334Z,7.20
2018-04-17T05:41:36.865Z,7.10
2018-04-17T05:44:04.325Z,7.20
2018-04-17T05:46:31.829Z,7.30
2018-04-17T05:49:00.088Z,7.50
2018-04-17T05:51:27.593Z,7.50
2018-04-17T05:53:55.077Z,7.60
2018-04-17T05:56:22.579Z,7.80
2018-04-17T05:58:50.053Z,7.90
2018-04-17T06:01:18.315Z,8.10
2018-04-17T06:03:45.793Z,8.10
2018-04-17T06:06:14.057Z,8.40
2018-04-17T06:08:42.300Z,8.50
2018-04-17T06:11:10.002Z,8.40
2018-04-17T06:13:38.268Z,8.80
2018-04-17T06:16:05.738Z,8.70
2018-04-17T06:18:33.997Z,9.20
2018-04-17T06:21:01.484Z,9.10
2018-04-17T06:23:30.998Z,9.70
2018-04-17T06:25:58.479Z,9.60
2018-04-17T06:28:25.973Z,9.90
2018-04-17T06:30:53.449Z,10.10
2018-04-17T06:33:21.721Z,10.60
2018-04-17T06:35:49.216Z,10.50
2018-04-17T06:38:16.713Z,10.80
2018-04-17T06:40:44.199Z,11.00
2018-04-17T06:43:11.702Z,11.10
2018-04-17T06:45:39.193Z,11.40
2018-04-17T06:48:06.717Z,11.50
2018-04-17T06:50:34.209Z,11.70
2018-04-17T06:53:01.693Z,11.80
2018-04-17T06:55:29.203Z,12.00
2018-04-17T06:57:56.708Z,12.10
2018-04-17T07:00:24.203Z,12.30
2018-04-17T07:02:51.681Z,12.40
2018-04-17T07:05:19.196Z,12.50
2018-04-17T07:07:47.457Z,12.80
2018-04-17T07:10:14.953Z,12.70
2018-04-17T07:12:42.435Z,12.90
2018-04-17T07:15:09.950Z,13.00
2018-04-17T07:17:38.198Z,13.20
2018-04-17T07:20:05.706Z,13.20
2018-04-17T07:22:33.962Z,13.60
2018-04-17T07:25:01.564Z,13.50
2018-04-17T07:27:29.053Z,13.70
2018-04-17T07:29:56.553Z,13.90
2018-04-17T07:32:24.805Z,14.30
2018-04-17T07:34:52.304Z,14.30
2018-04-17T07:37:20.550Z,14.70
2018-04-17T07:39:48.062Z,14.60
2018-04-17T07:42:15.549Z,14.90
2018-04-17T07:44:43.047Z,15.10
2018-04-17T07:47:30.213Z,15.40
2018-04-17T07:49:58.437Z,15.50
2018-04-17T07:52:26.698Z,15.60
2018-04-17T07:54:54.206Z,15.60
2018-04-17T07:57:21.720Z,15.70
2018-04-17T07:59:49.225Z,15.90
2018-04-17T08:02:16.708Z,16.00
2018-04-17T08:04:44.211Z,16.10
2018-04-17T08:07:12.461Z,16.30
2018-04-17T08:09:39.957Z,16.20
2018-04-17T08:12:08.201Z,16.20
2018-04-17T08:14:35.701Z,16.10
2018-04-17T08:17:03.194Z,16.20
2018-04-17T08:19:30.693Z,16.30
2018-04-17T08:21:58.457Z,16.40
2018-04-17T08:24:25.967Z,16.50
2018-04-17T08:26:53.469Z,16.60
2018-04-17T08:29:20.960Z,16.70
2018-04-17T08:31:49.227Z,16.80
2018-04-17T08:34:17.920Z,17.00
2018-04-17T08:36:46.250Z,17.10
2018-04-17T08:39:13.689Z,17.10
2018-04-17T08:41:41.191Z,17.30
2018-04-17T08:44:08.670Z,17.40
2018-04-17T08:46:36.938Z,17.60
2018-04-17T08:49:05.185Z,17.70
2018-04-17T08:51:32.687Z,17.70
2018-04-17T08:54:00.949Z,18.00
2018-04-17T08:56:29.225Z,18.10
2018-04-17T08:58:56.705Z,18.00
2018-04-17T09:01:24.214Z,18.20
2018-04-17T09:03:51.694Z,18.20
2018-04-17T09:06:19.197Z,18.30
2018-04-17T09:08:46.681Z,18.30
2018-04-17T09:11:14.198Z,18.30
2018-04-17T09:13:42.445Z,18.20
2018-04-17T09:16:09.945Z,18.10
2018-04-17T09:18:38.190Z,18.30
2018-04-17T09:21:05.693Z,18.30
2018-04-17T09:23:33.185Z,18.40
2018-04-17T09:26:00.695Z,18.40
2018-04-17T09:28:28.961Z,18.10
2018-04-17T09:30:57.224Z,18.10
2018-04-17T09:33:25.502Z,18.10
2018-04-17T09:35:53.010Z,18.10
2018-04-17T09:38:20.507Z,18.10
2018-04-17T09:40:47.985Z,18.20
2018-04-17T09:43:15.489Z,18.30
2018-04-17T09:45:42.972Z,18.50
2018-04-17T09:48:10.529Z,18.60
2018-04-17T09:50:38.061Z,18.80
2018-04-17T09:53:06.309Z,18.70
2018-04-17T09:55:34.570Z,18.70
2018-04-17T09:58:02.078Z,18.60
2018-04-17T10:00:29.562Z,18.80
2018-04-17T10:02:57.061Z,18.90
2018-04-17T10:05:25.318Z,19.10
2018-04-17T10:07:52.821Z,19.10
2018-04-17T10:10:20.302Z,19.20
2018-04-17T10:12:47.817Z,19.20
2018-04-17T10:15:16.061Z,19.20
2018-04-17T10:17:43.554Z,19.20
2018-04-17T10:20:13.149Z,19.30
2018-04-17T10:22:40.674Z,19.20
2018-04-17T10:25:08.159Z,19.30
2018-04-17T10:27:35.634Z,19.30
2018-04-17T10:30:03.897Z,19.40
2018-04-17T10:32:32.345Z,19.30
2018-04-17T10:34:59.901Z,19.30
2018-04-17T10:37:27.378Z,19.20
2018-04-17T10:39:54.881Z,19.20
2018-04-17T10:42:23.138Z,19.40
2018-04-17T10:44:50.643Z,19.30
2018-04-17T10:47:18.120Z,19.30
2018-04-17T10:49:45.612Z,19.40
2018-04-17T10:52:13.089Z,19.50
2018-04-17T10:54:41.365Z,19.60
2018-04-17T10:57:09.634Z,19.70
2018-04-17T10:59:37.130Z,19.60
2018-04-17T11:02:04.607Z,19.80
2018-04-17T11:04:32.109Z,20.00
2018-04-17T11:06:59.590Z,20.10
2018-04-17T11:09:27.857Z,20.20
2018-04-17T11:11:56.099Z,20.20
2018-04-17T11:14:23.598Z,20.20
2018-04-17T11:16:51.866Z,20.40
2018-04-17T11:19:20.137Z,20.40
2018-04-17T11:21:47.617Z,20.40
2018-04-17T11:24:15.883Z,20.40
2018-04-17T11:26:44.138Z,20.50
2018-04-17T11:29:11.638Z,20.40
2018-04-17T11:31:39.123Z,20.50
2018-04-17T11:34:06.825Z,20.50
2018-04-17T11:36:34.457Z,20.40
2018-04-17T11:39:08.299Z,20.20
2018-04-17T11:41:35.784Z,20.30
2018-04-17T11:44:04.049Z,20.40
2018-04-17T11:46:31.521Z,20.40
2018-04-17T11:48:59.781Z,20.70
2018-04-17T11:51:28.033Z,20.80
2018-04-17T11:53:55.530Z,20.80
2018-04-17T11:56:23.794Z,21.00
2018-04-17T11:58:52.060Z,21.10
2018-04-17T12:01:19.545Z,21.10
2018-04-17T12:03:47.929Z,20.90
2018-04-17T12:06:15.453Z,20.90
2018-04-17T12:08:42.933Z,20.90
2018-04-17T12:11:11.208Z,21.00
2018-04-17T12:13:41.133Z,21.10
2018-04-17T12:16:09.401Z,21.20
2018-04-17T12:18:36.907Z,21.10
2018-04-17T12:21:04.402Z,21.30
2018-04-17T12:23:31.893Z,21.40
2018-04-17T12:26:00.169Z,21.50
2018-04-17T12:28:28.409Z,21.40
2018-04-17T12:30:55.910Z,21.40
2018-04-17T12:33:23.399Z,21.40
2018-04-17T12:35:50.910Z,21.40
2018-04-17T12:38:18.386Z,21.50
2018-04-17T12:40:46.657Z,21.50
2018-04-17T12:43:14.897Z,21.50
2018-04-17T12:45:42.393Z,21.40
2018-04-17T12:48:10.656Z,21.50
2018-04-17T12:50:38.937Z,21.40
2018-04-17T12:53:07.186Z,21.40
2018-04-17T12:55:34.692Z,21.30
2018-04-17T12:58:02.948Z,21.10
2018-04-17T13:00:30.466Z,21.00
2018-04-17T13:02:57.949Z,21.00
2018-04-17T13:05:25.443Z,20.90
2018-04-17T13:07:53.693Z,20.80
2018-04-17T13:10:21.239Z,20.80
2018-04-17T13:12:48.733Z,20.70
2018-04-17T13:15:16.235Z,20.70
2018-04-17T13:17:43.754Z,20.70
2018-04-17T13:20:12.006Z,20.90
2018-04-17T13:22:39.521Z,20.90
2018-04-17T13:25:07.006Z,21.00
2018-04-17T13:27:34.501Z,21.00
2018-04-17T13:30:02.121Z,21.10
2018-04-17T13:32:29.620Z,21.20
2018-04-17T13:34:57.878Z,21.10
2018-04-17T13:37:25.373Z,21.00
2018-04-17T13:39:53.618Z,21.10
2018-04-17T13:42:21.141Z,21.10
2018-04-17T13:44:48.612Z,21.10
2018-04-17T13:47:16.118Z,21.00
2018-04-17T13:49:44.361Z,20.90
2018-04-17T13:52:11.861Z,20.80
2018-04-17T13:54:40.100Z,21.00
2018-04-17T13:57:07.593Z,20.90
2018-04-17T13:59:35.832Z,21.00
2018-04-17T14:02:03.339Z,20.90
2018-04-17T14:04:31.587Z,20.90
2018-04-17T14:06:59.093Z,20.90
2018-04-17T14:09:26.561Z,20.90
2018-04-17T14:11:54.059Z,20.90
2018-04-17T14:14:21.539Z,21.00
2018-04-17T14:16:49.820Z,21.20
2018-04-17T14:19:18.120Z,21.20
2018-04-17T14:21:45.617Z,21.20
2018-04-17T14:24:13.114Z,21.20
2018-04-17T14:26:41.387Z,21.20
2018-04-17T14:29:09.690Z,21.10
2018-04-17T14:31:37.205Z,21.10
2018-04-17T14:34:04.686Z,21.10
2018-04-17T14:36:32.943Z,21.20
2018-04-17T14:39:00.453Z,21.10
2018-04-17T14:41:27.932Z,21.20
2018-04-17T14:43:55.429Z,21.20
2018-04-17T14:46:22.916Z,21.10
2018-04-17T14:48:51.176Z,21.00
2018-04-17T14:51:18.663Z,21.00
2018-04-17T14:53:46.926Z,21.10
2018-04-17T14:56:15.174Z,21.20
2018-04-17T14:58:42.673Z,21.10
2018-04-17T15:01:10.157Z,21.20
2018-04-17T15:03:37.649Z,21.20
2018-04-17T15:06:05.127Z,21.20
2018-04-17T15:08:33.393Z,21.20
2018-04-17T15:11:01.093Z,21.20
2018-04-17T15:13:28.592Z,21.20
2018-04-17T15:15:56.073Z,21.10
2018-04-17T15:18:23.573Z,21.10
2018-04-17T15:20:51.049Z,21.00
2018-04-17T15:23:18.554Z,21.10
2018-04-17T15:25:46.808Z,21.20
2018-04-17T15:28:14.309Z,21.10
2018-04-17T15:30:43.331Z,21.20
2018-04-17T15:33:10.833Z,21.20
2018-04-17T15:35:38.313Z,21.20
2018-04-17T15:38:06.573Z,21.10
2018-04-17T15:40:34.450Z,21.00
2018-04-17T15:43:02.731Z,21.00
2018-04-17T15:45:31.972Z,21.00
2018-04-17T15:47:59.490Z,21.00
2018-04-17T15:50:26.962Z,21.00
2018-04-17T15:52:55.209Z,21.00
2018-04-17T15:55:22.712Z,20.90
2018-04-17T15:57:50.977Z,20.90
2018-04-17T16:00:19.249Z,20.90
2018-04-17T16:02:47.494Z,20.90
2018-04-17T16:05:14.984Z,20.80
2018-04-17T16:07:43.228Z,21.00
2018-04-17T16:10:10.721Z,20.90
2018-04-17T16:12:38.966Z,20.90
2018-04-17T16:15:06.469Z,20.90
2018-04-17T16:17:34.713Z,20.90
2018-04-17T16:20:02.205Z,20.80
2018-04-17T16:22:30.454Z,20.80
2018-04-17T16:24:57.941Z,20.80
2018-04-17T16:27:26.187Z,20.70
2018-04-17T16:29:53.687Z,20.70
2018-04-17T16:35:32.621Z,20.70
2018-04-17T16:38:02.424Z,20.70
2018-04-17T16:40:30.807Z,20.70
2018-04-17T16:42:59.078Z,20.70
2018-04-17T16:45:26.582Z,20.60
2018-04-17T16:47:54.061Z,20.60
2018-04-17T16:50:21.574Z,20.60
2018-04-17T16:52:49.817Z,20.50
2018-04-17T16:55:17.319Z,20.50
2018-04-17T16:57:44.805Z,20.50
2018-04-17T17:00:12.301Z,20.50
2018-04-17T17:02:39.799Z,20.40
2018-04-17T17:05:07.292Z,20.50
2018-04-17T17:07:34.840Z,20.40
2018-04-17T17:10:02.368Z,20.40
2018-04-17T17:12:30.617Z,20.30
2018-04-17T17:14:58.109Z,20.30
2018-04-17T17:17:25.586Z,20.30
2018-04-17T17:19:53.085Z,20.30
2018-04-17T17:22:20.557Z,20.30
2018-04-17T17:24:48.059Z,20.20
2018-04-17T17:27:15.554Z,20.10
2018-04-17T17:29:43.049Z,20.10
2018-04-17T17:32:11.288Z,20.00
2018-04-17T17:34:38.793Z,20.00
2018-04-17T17:37:07.030Z,19.90
2018-04-17T17:39:34.513Z,19.90
2018-04-17T17:42:02.783Z,19.80
2018-04-17T17:44:30.290Z,19.80
2018-04-17T17:47:01.237Z,19.80
2018-04-17T17:49:28.806Z,19.80
2018-04-17T17:51:57.444Z,19.80
2018-04-17T17:54:25.694Z,19.70
2018-04-17T17:56:53.246Z,19.60
2018-04-17T17:59:21.683Z,19.60
2018-04-17T18:01:49.182Z,19.50
2018-04-17T18:04:16.657Z,19.50
2018-04-17T18:06:44.156Z,19.40
2018-04-17T18:09:12.405Z,19.30
2018-04-17T18:11:39.884Z,19.30
2018-04-17T18:14:07.430Z,19.30
2018-04-17T18:16:35.682Z,19.10
2018-04-17T18:19:03.220Z,19.00
2018-04-17T18:21:30.702Z,19.00
2018-04-17T18:23:58.266Z,18.90
2018-04-17T18:26:25.799Z,18.70
2018-04-17T18:28:53.350Z,18.50
2018-04-17T18:31:20.850Z,18.40
2018-04-17T18:33:48.429Z,18.20
2018-04-17T18:36:15.947Z,18.10
2018-04-17T18:38:43.442Z,18.00
2018-04-17T18:41:10.949Z,17.90
2018-04-17T18:43:38.453Z,17.80
2018-04-17T18:46:06.020Z,17.70
2018-04-17T18:48:34.286Z,17.50
2018-04-17T18:51:02.011Z,17.50
2018-04-17T18:53:29.560Z,17.40
2018-04-17T18:55:57.097Z,17.30
2018-04-17T18:58:25.353Z,17.10
2018-04-17T19:00:52.867Z,17.00
2018-04-17T19:03:20.403Z,17.00
2018-04-17T19:05:47.945Z,16.90
2018-04-17T19:08:16.392Z,16.70
2018-04-17T19:10:43.875Z,16.70
2018-04-17T19:13:11.380Z,16.60
2018-04-17T19:15:38.871Z,16.60
2018-04-17T19:18:06.381Z,16.50
2018-04-17T19:20:34.713Z,16.40
2018-04-17T19:23:02.221Z,16.40
2018-04-17T19:25:29.746Z,16.30
2018-04-17T19:27:57.246Z,16.30
2018-04-17T19:30:24.866Z,16.20
2018-04-17T19:32:52.384Z,16.20
2018-04-17T19:35:20.138Z,16.20
2018-04-17T19:37:47.742Z,16.10
2018-04-17T19:40:15.309Z,16.00
2018-04-17T19:42:42.808Z,15.90
2018-04-17T19:45:10.345Z,15.80
2018-04-17T19:47:37.846Z,15.80
2018-04-17T19:50:05.957Z,15.70
2018-04-17T19:52:34.205Z,15.70
2018-04-17T19:55:01.738Z,15.60
2018-04-17T19:57:30.033Z,15.50
2018-04-17T19:59:57.552Z,15.50
2018-04-17T20:02:25.866Z,15.50
2018-04-17T20:04:53.583Z,15.40
2018-04-17T20:07:21.150Z,15.40
2018-04-17T20:09:48.645Z,15.40
2018-04-17T20:12:16.912Z,15.30
2018-04-17T20:14:46.063Z,15.20
2018-04-17T20:17:13.537Z,15.20
2018-04-17T20:19:42.473Z,15.20
2018-04-17T20:22:10.543Z,15.10
2018-04-17T20:24:38.060Z,15.00
2018-04-17T20:27:05.967Z,15.00
2018-04-17T20:29:34.197Z,15.00
2018-04-17T20:32:01.699Z,14.90
2018-04-17T20:34:30.325Z,14.90
2018-04-17T20:36:58.161Z,14.80
2018-04-17T20:39:25.737Z,14.80
2018-04-17T20:41:53.934Z,14.70
2018-04-17T20:44:21.457Z,14.70
2018-04-17T20:46:49.018Z,14.70
2018-04-17T20:49:16.505Z,14.60
2018-04-17T20:51:44.013Z,14.60
2018-04-17T20:54:11.489Z,14.50
2018-04-17T20:56:39.067Z,14.50
2018-04-17T20:59:06.609Z,14.40
2018-04-17T21:01:34.934Z,14.30
2018-04-17T21:04:02.545Z,14.20
2018-04-17T21:06:30.966Z,14.20
2018-04-17T21:08:59.950Z,14.10
2018-04-17T21:11:27.960Z,14.10
2018-04-17T21:13:55.437Z,14.10
2018-04-17T21:16:22.984Z,14.00
2018-04-17T21:18:50.469Z,13.90
2018-04-17T21:21:18.733Z,13.80
2018-04-17T21:23:46.240Z,13.70
2018-04-17T21:26:13.732Z,13.80
2018-04-17T21:28:41.219Z,13.70
2018-04-17T21:31:09.494Z,13.60
2018-04-17T21:33:37.753Z,13.50
2018-04-17T21:36:05.256Z,13.40
2018-04-17T21:38:32.756Z,13.40
2018-04-17T21:41:00.257Z,13.30
2018-04-17T21:43:28.504Z,13.20
2018-04-17T21:45:55.993Z,13.10
2018-04-17T21:48:24.580Z,13.10
2018-04-17T21:50:52.861Z,13.00
2018-04-17T21:53:21.847Z,13.00
2018-04-17T21:55:49.470Z,12.90
2018-04-17T21:58:17.503Z,12.90
2018-04-17T22:00:45.377Z,12.90
2018-04-17T22:03:12.979Z,12.80
2018-04-17T22:05:40.522Z,12.80
2018-04-17T22:08:08.032Z,12.70
2018-04-17T22:10:36.282Z,12.60
2018-04-17T22:13:03.777Z,12.50
2018-04-17T22:15:31.457Z,12.50
2018-04-17T22:17:58.961Z,12.40
2018-04-17T22:20:26.449Z,12.40
2018-04-17T22:22:54.714Z,12.20
2018-04-17T22:25:22.198Z,12.20
2018-04-17T22:27:50.462Z,12.20
2018-04-17T22:30:18.718Z,12.10
2018-04-17T22:32:46.216Z,12.00
2018-04-17T22:35:13.742Z,12.10
2018-04-17T22:37:41.213Z,12.00
2018-04-17T22:40:09.457Z,11.90
2018-04-17T22:42:36.954Z,11.80
2018-04-17T22:45:04.441Z,11.80
2018-04-17T22:47:31.966Z,11.70
2018-04-17T22:50:00.227Z,11.60
2018-04-17T22:52:27.720Z,11.60
2018-04-17T22:54:55.961Z,11.50
2018-04-17T22:57:23.458Z,11.50
2018-04-17T22:59:51.709Z,11.50
2018-04-17T23:02:19.210Z,11.40
2018-04-17T23:04:46.686Z,11.50
2018-04-17T23:07:14.181Z,11.50
2018-04-17T23:09:41.661Z,11.40
2018-04-17T23:12:28.782Z,11.30
2018-04-17T23:14:56.261Z,11.20
2018-04-17T23:17:23.762Z,11.20
2018-04-17T23:19:51.252Z,11.20
2018-04-17T23:22:19.513Z,11.10
2018-04-17T23:24:46.989Z,11.00
2018-04-17T23:27:15.253Z,11.00
2018-04-17T23:29:42.725Z,11.00
2018-04-17T23:32:10.989Z,11.00
2018-04-17T23:34:38.469Z,10.90
2018-04-17T23:37:06.730Z,10.90
2018-04-17T23:39:34.210Z,10.80
2018-04-17T23:42:02.477Z,10.80
2018-04-17T23:44:29.959Z,10.70
2018-04-17T23:46:57.458Z,10.70
2018-04-17T23:49:24.934Z,10.70
2018-04-17T23:51:52.465Z,10.60
2018-04-17T23:54:19.942Z,10.60
2018-04-17T23:56:47.413Z,10.50
2018-04-17T23:59:14.914Z,10.50
